createdAt,value
2023-04-28T00:03:50.039Z,17.50
2023-04-28T00:09:16.468Z,20.00
2023-04-28T00:14:41.309Z,20.30
2023-04-28T00:20:06.655Z,18.70
2023-04-28T00:25:30.570Z,16.30
2023-04-28T00:30:54.446Z,21.10
2023-04-28T00:36:18.450Z,16.40
2023-04-28T00:41:43.264Z,15.50
2023-04-28T00:47:12.119Z,18.80
2023-04-28T00:52:37.270Z,18.90
2023-04-28T00:58:02.760Z,16.60
2023-04-28T01:03:27.398Z,19.70
2023-04-28T01:08:51.479Z,15.00
2023-04-28T01:14:17.843Z,20.20
2023-04-28T01:19:43.796Z,17.20
2023-04-28T01:25:08.618Z,16.20
2023-04-28T01:30:33.308Z,16.10
2023-04-28T01:36:01.313Z,16.00
2023-04-28T01:41:25.474Z,22.40
2023-04-28T01:46:50.604Z,24.60
2023-04-28T01:52:15.780Z,20.30
2023-04-28T01:57:40.147Z,23.50
2023-04-28T02:03:04.794Z,21.30
2023-04-28T02:08:32.535Z,20.70
2023-04-28T02:13:56.822Z,26.90
2023-04-28T02:19:21.971Z,22.00
2023-04-28T02:24:46.365Z,24.30
2023-04-28T02:30:11.262Z,22.00
2023-04-28T02:35:35.412Z,20.70
2023-04-28T02:41:05.404Z,19.10
2023-04-28T02:46:29.511Z,21.70
2023-04-28T02:51:56.569Z,18.80
2023-04-28T02:57:21.626Z,19.30
2023-04-28T03:02:45.908Z,19.10
2023-04-28T03:08:10.465Z,21.70
2023-04-28T03:13:36.273Z,21.10
2023-04-28T03:19:00.637Z,25.20
2023-04-28T03:24:25.714Z,28.10
2023-04-28T03:29:52.367Z,23.20
2023-04-28T03:35:18.796Z,24.50
2023-04-28T03:40:43.441Z,21.40
2023-04-28T03:46:43.699Z,27.70
2023-04-28T03:52:08.324Z,29.60
2023-04-28T03:57:34.328Z,29.40
2023-04-28T04:02:59.282Z,27.40
2023-04-28T04:08:23.713Z,25.10
2023-04-28T04:13:48.263Z,28.00
2023-04-28T04:19:13.377Z,27.80
2023-04-28T04:24:39.066Z,28.10
2023-04-28T04:30:04.535Z,35.60
2023-04-28T04:35:29.817Z,29.70
2023-04-28T04:40:54.431Z,24.90
2023-04-28T04:46:19.536Z,22.40
2023-04-28T04:51:44.326Z,27.50
2023-04-28T04:57:10.034Z,24.30
2023-04-28T05:02:58.019Z,24.20
2023-04-28T05:08:31.004Z,22.10
2023-04-28T05:14:10.054Z,26.90
2023-04-28T05:19:36.765Z,26.40
2023-04-28T05:25:01.908Z,27.20
2023-04-28T05:30:26.886Z,26.60
2023-04-28T05:35:52.330Z,29.20
2023-04-28T05:41:17.371Z,30.30
2023-04-28T05:46:41.853Z,30.50
2023-04-28T05:52:06.307Z,28.20
2023-04-28T05:57:32.039Z,29.70
2023-04-28T06:03:01.562Z,24.70
2023-04-28T06:08:27.081Z,26.60
2023-04-28T06:13:51.968Z,22.70
2023-04-28T06:19:19.208Z,26.00
2023-04-28T06:24:44.380Z,23.40
2023-04-28T06:30:19.248Z,25.20
2023-04-28T06:35:44.431Z,20.60
2023-04-28T06:41:09.383Z,19.40
2023-04-28T06:46:34.309Z,22.40
2023-04-28T06:51:58.256Z,20.90
2023-04-28T06:57:22.971Z,27.00
2023-04-28T07:02:47.299Z,25.10
2023-04-28T07:08:11.285Z,22.20
2023-04-28T07:13:36.274Z,27.80
2023-04-28T07:19:00.996Z,23.90
2023-04-28T07:24:25.889Z,26.00
2023-04-28T07:29:50.317Z,28.70
2023-04-28T07:36:28.961Z,26.00
2023-04-28T07:42:31.709Z,28.00
2023-04-28T07:47:56.824Z,19.30
2023-04-28T07:53:21.953Z,18.60
2023-04-28T07:58:46.278Z,22.60
2023-04-28T08:04:11.612Z,21.10
2023-04-28T08:09:36.457Z,23.20
2023-04-28T08:15:00.381Z,20.20
2023-04-28T08:20:25.575Z,19.80
2023-04-28T08:25:50.820Z,19.50
2023-04-28T08:31:15.245Z,17.70
2023-04-28T08:36:39.677Z,17.90
2023-04-28T08:42:07.978Z,16.60
2023-04-28T08:47:36.627Z,16.10
2023-04-28T08:53:05.130Z,15.20
2023-04-28T08:58:29.977Z,14.10
2023-04-28T09:03:55.447Z,9.60
2023-04-28T09:09:47.932Z,12.00
2023-04-28T09:15:37.834Z,11.60
2023-04-28T09:21:13.404Z,14.50
2023-04-28T09:26:55.476Z,15.30
2023-04-28T09:32:22.562Z,11.00
2023-04-28T09:37:47.673Z,9.70
2023-04-28T09:43:34.122Z,11.30
2023-04-28T09:49:02.833Z,7.70
2023-04-28T09:54:30.506Z,7.40
2023-04-28T09:59:54.986Z,10.40
2023-04-28T10:05:22.225Z,9.50
2023-04-28T10:10:54.984Z,8.90
2023-04-28T10:16:20.594Z,10.50
2023-04-28T10:21:53.109Z,8.80
2023-04-28T10:27:18.537Z,10.50
2023-04-28T10:32:44.267Z,10.90
2023-04-28T10:38:20.795Z,10.20
2023-04-28T10:43:51.865Z,13.40
2023-04-28T10:49:17.462Z,7.70
2023-04-28T10:55:19.335Z,8.30
2023-04-28T11:00:57.212Z,10.60
2023-04-28T11:06:38.858Z,9.40
2023-04-28T11:12:11.533Z,7.90
2023-04-28T11:17:42.827Z,7.20
2023-04-28T11:23:12.232Z,5.60
2023-04-28T11:28:52.798Z,10.60
2023-04-28T11:34:25.216Z,8.00
2023-04-28T11:39:52.199Z,5.60
2023-04-28T11:45:17.216Z,8.00
2023-04-28T11:50:41.763Z,9.60
2023-04-28T11:56:09.986Z,5.90
2023-04-28T12:01:37.743Z,6.20
2023-04-28T12:07:12.974Z,6.30
2023-04-28T12:12:49.983Z,6.10
2023-04-28T12:18:19.883Z,6.00
2023-04-28T12:23:44.278Z,7.00
2023-04-28T12:29:08.201Z,6.60
2023-04-28T12:34:33.606Z,4.30
2023-04-28T12:39:58.255Z,5.50
2023-04-28T12:45:24.679Z,7.40
2023-04-28T12:50:49.582Z,6.00
2023-04-28T12:56:13.870Z,3.60
2023-04-28T13:01:38.522Z,3.30
2023-04-28T13:07:03.951Z,6.00
2023-04-28T13:12:28.324Z,4.50
2023-04-28T13:17:53.491Z,2.60
2023-04-28T13:23:18.189Z,3.30
2023-04-28T13:28:42.640Z,6.10
2023-04-28T13:34:06.570Z,4.80
2023-04-28T13:39:31.384Z,4.60
2023-04-28T13:44:55.483Z,3.60
2023-04-28T13:50:21.225Z,4.90
2023-04-28T13:55:46.736Z,6.70
2023-04-28T14:01:12.438Z,4.70
2023-04-28T14:06:37.602Z,4.00
2023-04-28T14:12:02.529Z,4.00
2023-04-28T14:17:28.795Z,4.80
2023-04-28T14:22:53.880Z,4.60
2023-04-28T14:28:18.352Z,5.60
2023-04-28T14:33:43.076Z,4.50
2023-04-28T14:39:06.892Z,2.60
2023-04-28T14:44:31.263Z,5.10
2023-04-28T14:49:55.519Z,4.40
2023-04-28T14:55:21.631Z,4.20
2023-04-28T15:00:46.331Z,5.50
2023-04-28T15:06:11.939Z,3.80
2023-04-28T15:11:36.389Z,8.10
2023-04-28T15:17:00.545Z,5.20
2023-04-28T15:22:25.291Z,4.90
2023-04-28T15:27:50.950Z,6.90
2023-04-28T15:33:18.097Z,4.00
2023-04-28T15:38:42.997Z,5.90
2023-04-28T15:44:07.719Z,3.60
2023-04-28T15:49:32.299Z,11.10
2023-04-28T15:54:56.822Z,4.40
2023-04-28T16:00:22.449Z,4.10
2023-04-28T16:05:47.605Z,4.00
2023-04-28T16:11:19.704Z,4.00
2023-04-28T16:16:44.900Z,4.70
2023-04-28T16:22:09.656Z,5.70
2023-04-28T16:27:35.648Z,5.70
2023-04-28T16:33:00.468Z,5.70
2023-04-28T16:38:25.479Z,4.90
2023-04-28T16:43:52.056Z,9.90
2023-04-28T16:49:18.618Z,7.50
2023-04-28T16:54:49.476Z,6.80
2023-04-28T17:00:22.481Z,6.60
2023-04-28T17:05:53.448Z,4.60
2023-04-28T17:11:22.345Z,4.40
2023-04-28T17:16:51.439Z,8.50
2023-04-28T17:22:21.620Z,3.60
2023-04-28T17:27:48.658Z,7.50
2023-04-28T17:33:14.809Z,7.10
2023-04-28T17:38:50.641Z,11.10
2023-04-28T17:44:22.043Z,11.10
2023-04-28T17:49:48.770Z,11.00
2023-04-28T17:55:24.398Z,7.60
2023-04-28T18:00:57.820Z,6.30
2023-04-28T18:06:29.608Z,7.40
2023-04-28T18:12:00.552Z,6.50
2023-04-28T18:17:29.500Z,6.00
2023-04-28T18:22:53.744Z,5.90
2023-04-28T18:28:18.331Z,5.70
2023-04-28T18:33:42.292Z,5.40
2023-04-28T18:39:07.044Z,8.90
2023-04-28T18:44:34.761Z,9.30
2023-04-28T18:50:00.409Z,8.40
2023-04-28T18:55:25.091Z,7.70
2023-04-28T19:00:49.500Z,8.70
2023-04-28T19:06:14.904Z,7.70
2023-04-28T19:11:38.903Z,10.50
2023-04-28T19:17:03.930Z,9.20
2023-04-28T19:22:40.772Z,7.60
2023-04-28T19:28:05.221Z,8.30
2023-04-28T19:33:30.043Z,9.30
2023-04-28T19:38:54.332Z,7.50
2023-04-28T19:44:20.615Z,9.10
2023-04-28T19:49:46.771Z,8.40
2023-04-28T19:55:13.718Z,10.30
2023-04-28T20:00:38.828Z,12.20
2023-04-28T20:06:02.953Z,5.60
2023-04-28T20:11:28.925Z,7.40
2023-04-28T20:16:54.558Z,6.50
2023-04-28T20:23:07.324Z,8.40
2023-04-28T20:29:00.130Z,12.30
2023-04-28T20:34:25.155Z,9.10
2023-04-28T20:39:51.217Z,10.20
2023-04-28T20:45:17.608Z,16.60
2023-04-28T20:50:43.596Z,10.30
2023-04-28T20:56:10.028Z,10.90
2023-04-28T21:01:35.881Z,10.00
2023-04-28T21:07:00.630Z,9.10
2023-04-28T21:12:24.642Z,9.30
2023-04-28T21:17:49.818Z,7.70
2023-04-28T21:23:14.366Z,9.90
2023-04-28T21:28:40.503Z,8.10
2023-04-28T21:34:05.332Z,8.10
2023-04-28T21:39:29.831Z,8.90
2023-04-28T21:44:54.292Z,8.30
2023-04-28T21:50:18.720Z,7.90
2023-04-28T21:55:45.153Z,9.80
2023-04-28T22:01:10.467Z,7.80
2023-04-28T22:06:36.246Z,12.50
2023-04-28T22:12:00.253Z,9.00
2023-04-28T22:17:24.178Z,11.10
2023-04-28T22:22:48.550Z,13.20
2023-04-28T22:28:12.676Z,10.80
2023-04-28T22:33:39.146Z,11.00
2023-04-28T22:39:05.311Z,10.10
2023-04-28T22:44:30.433Z,11.90
2023-04-28T22:49:55.952Z,12.60
2023-04-28T22:55:20.881Z,17.50
2023-04-28T23:00:45.353Z,15.50
2023-04-28T23:06:10.887Z,13.60
2023-04-28T23:11:36.044Z,15.60
2023-04-28T23:17:00.276Z,9.50
2023-04-28T23:22:24.836Z,9.60
2023-04-28T23:27:49.524Z,10.50
2023-04-28T23:33:13.559Z,10.70
2023-04-28T23:38:38.435Z,14.30
2023-04-28T23:44:03.239Z,14.70
2023-04-28T23:49:27.163Z,19.90
2023-04-28T23:54:51.717Z,15.80
